sensor_id;sensor_type;location;lat;lon;timestamp;P1;durP1;ratioP1;P2;durP2;ratioP2
32812;SDS011;19162;48.254;11.454;2023-04-03T00:02:38;4.68;;;4.30;;
32812;SDS011;19162;48.254;11.454;2023-04-03T00:05:54;4.00;;;3.70;;
32812;SDS011;19162;48.254;11.454;2023-04-03T00:09:33;5.00;;;4.60;;
32812;SDS011;19162;48.254;11.454;2023-04-03T00:12:39;4.30;;;3.90;;
32812;SDS011;19162;48.254;11.454;2023-04-03T00:15:55;4.13;;;3.75;;
32812;SDS011;19162;48.254;11.454;2023-04-03T00:19:04;3.90;;;3.35;;
32812;SDS011;19162;48.254;11.454;2023-04-03T00:26:06;4.20;;;3.90;;
32812;SDS011;19162;48.254;11.454;2023-04-03T00:29:11;4.18;;;3.65;;
32812;SDS011;19162;48.254;11.454;2023-04-03T00:38:50;3.60;;;3.30;;
32812;SDS011;19162;48.254;11.454;2023-04-03T00:42:09;3.63;;;3.35;;
32812;SDS011;19162;48.254;11.454;2023-04-03T00:45:36;3.65;;;3.35;;
32812;SDS011;19162;48.254;11.454;2023-04-03T00:48:39;3.75;;;3.45;;
32812;SDS011;19162;48.254;11.454;2023-04-03T00:51:46;4.07;;;3.22;;
32812;SDS011;19162;48.254;11.454;2023-04-03T00:54:50;4.18;;;3.75;;
32812;SDS011;19162;48.254;11.454;2023-04-03T00:57:57;3.63;;;3.03;;
32812;SDS011;19162;48.254;11.454;2023-04-03T01:01:05;3.60;;;3.30;;
32812;SDS011;19162;48.254;11.454;2023-04-03T01:04:28;3.10;;;2.85;;
32812;SDS011;19162;48.254;11.454;2023-04-03T01:07:32;3.10;;;2.90;;
32812;SDS011;19162;48.254;11.454;2023-04-03T01:10:39;3.03;;;2.83;;
32812;SDS011;19162;48.254;11.454;2023-04-03T01:13:48;3.53;;;3.22;;
32812;SDS011;19162;48.254;11.454;2023-04-03T01:16:53;3.95;;;3.35;;
32812;SDS011;19162;48.254;11.454;2023-04-03T01:26:55;2.88;;;2.60;;
32812;SDS011;19162;48.254;11.454;2023-04-03T01:30:01;3.05;;;2.85;;
32812;SDS011;19162;48.254;11.454;2023-04-03T01:33:07;3.28;;;2.67;;
32812;SDS011;19162;48.254;11.454;2023-04-03T01:36:10;3.08;;;2.88;;
32812;SDS011;19162;48.254;11.454;2023-04-03T01:39:24;3.63;;;2.80;;
32812;SDS011;19162;48.254;11.454;2023-04-03T01:42:33;2.97;;;2.65;;
32812;SDS011;19162;48.254;11.454;2023-04-03T01:45:38;2.75;;;2.55;;
32812;SDS011;19162;48.254;11.454;2023-04-03T01:48:47;2.83;;;2.63;;
32812;SDS011;19162;48.254;11.454;2023-04-03T01:51:56;2.67;;;2.47;;
32812;SDS011;19162;48.254;11.454;2023-04-03T01:58:06;3.25;;;2.42;;
32812;SDS011;19162;48.254;11.454;2023-04-03T02:01:09;2.63;;;2.42;;
32812;SDS011;19162;48.254;11.454;2023-04-03T02:04:27;2.65;;;2.45;;
32812;SDS011;19162;48.254;11.454;2023-04-03T02:07:33;2.60;;;2.40;;
32812;SDS011;19162;48.254;11.454;2023-04-03T02:11:26;3.00;;;2.67;;
32812;SDS011;19162;48.254;11.454;2023-04-03T02:14:39;2.78;;;2.17;;
32812;SDS011;19162;48.254;11.454;2023-04-03T02:18:01;3.10;;;2.80;;
32812;SDS011;19162;48.254;11.454;2023-04-03T02:21:28;2.10;;;1.95;;
32812;SDS011;19162;48.254;11.454;2023-04-03T02:24:34;2.97;;;2.45;;
32812;SDS011;19162;48.254;11.454;2023-04-03T02:34:24;2.40;;;2.20;;
32812;SDS011;19162;48.254;11.454;2023-04-03T02:41:17;2.55;;;2.33;;
32812;SDS011;19162;48.254;11.454;2023-04-03T02:44:37;2.40;;;2.20;;
32812;SDS011;19162;48.254;11.454;2023-04-03T02:47:52;2.53;;;2.33;;
32812;SDS011;19162;48.254;11.454;2023-04-03T02:54:27;2.83;;;2.50;;
32812;SDS011;19162;48.254;11.454;2023-04-03T03:01:22;3.38;;;2.10;;
32812;SDS011;19162;48.254;11.454;2023-04-03T03:11:49;3.30;;;2.97;;
32812;SDS011;19162;48.254;11.454;2023-04-03T03:14:53;2.92;;;2.72;;
32812;SDS011;19162;48.254;11.454;2023-04-03T03:17:55;3.47;;;2.80;;
32812;SDS011;19162;48.254;11.454;2023-04-03T03:20:56;2.70;;;2.50;;
32812;SDS011;19162;48.254;11.454;2023-04-03T03:24:39;3.38;;;2.40;;
32812;SDS011;19162;48.254;11.454;2023-04-03T03:27:26;2.97;;;2.60;;
32812;SDS011;19162;48.254;11.454;2023-04-03T03:30:26;2.72;;;2.53;;
32812;SDS011;19162;48.254;11.454;2023-04-03T03:36:58;3.58;;;2.50;;
32812;SDS011;19162;48.254;11.454;2023-04-03T03:40:07;4.78;;;2.80;;
32812;SDS011;19162;48.254;11.454;2023-04-03T03:43:22;3.30;;;2.92;;
32812;SDS011;19162;48.254;11.454;2023-04-03T03:50:21;3.13;;;2.85;;
32812;SDS011;19162;48.254;11.454;2023-04-03T03:57:32;2.70;;;2.50;;
32812;SDS011;19162;48.254;11.454;2023-04-03T04:00:28;4.43;;;3.08;;
32812;SDS011;19162;48.254;11.454;2023-04-03T04:03:29;3.30;;;2.95;;
32812;SDS011;19162;48.254;11.454;2023-04-03T04:06:29;3.03;;;2.40;;
32812;SDS011;19162;48.254;11.454;2023-04-03T04:09:30;5.27;;;2.90;;
32812;SDS011;19162;48.254;11.454;2023-04-03T04:12:30;3.15;;;2.85;;
32812;SDS011;19162;48.254;11.454;2023-04-03T04:15:30;3.80;;;2.97;;
32812;SDS011;19162;48.254;11.454;2023-04-03T04:18:31;3.20;;;3.00;;
32812;SDS011;19162;48.254;11.454;2023-04-03T04:21:34;3.30;;;3.10;;
32812;SDS011;19162;48.254;11.454;2023-04-03T04:24:35;3.00;;;2.80;;
32812;SDS011;19162;48.254;11.454;2023-04-03T04:27:35;3.33;;;3.10;;
32812;SDS011;19162;48.254;11.454;2023-04-03T04:30:36;3.72;;;2.85;;
32812;SDS011;19162;48.254;11.454;2023-04-03T04:33:37;4.70;;;3.00;;
32812;SDS011;19162;48.254;11.454;2023-04-03T04:36:55;3.13;;;2.70;;
32812;SDS011;19162;48.254;11.454;2023-04-03T04:40:13;3.17;;;2.88;;
32812;SDS011;19162;48.254;11.454;2023-04-03T04:43:14;3.92;;;3.53;;
32812;SDS011;19162;48.254;11.454;2023-04-03T04:46:14;3.28;;;3.08;;
32812;SDS011;19162;48.254;11.454;2023-04-03T04:49:15;3.23;;;2.97;;
32812;SDS011;19162;48.254;11.454;2023-04-03T04:52:15;3.70;;;3.40;;
32812;SDS011;19162;48.254;11.454;2023-04-03T04:55:15;3.90;;;3.50;;
32812;SDS011;19162;48.254;11.454;2023-04-03T04:58:15;2.97;;;2.77;;
32812;SDS011;19162;48.254;11.454;2023-04-03T05:01:16;3.83;;;3.37;;
32812;SDS011;19162;48.254;11.454;2023-04-03T05:04:18;3.28;;;3.00;;
32812;SDS011;19162;48.254;11.454;2023-04-03T05:07:18;3.07;;;2.80;;
32812;SDS011;19162;48.254;11.454;2023-04-03T05:10:19;3.63;;;3.30;;
32812;SDS011;19162;48.254;11.454;2023-04-03T05:13:19;3.58;;;3.28;;
32812;SDS011;19162;48.254;11.454;2023-04-03T05:16:19;4.13;;;3.72;;
32812;SDS011;19162;48.254;11.454;2023-04-03T05:19:20;5.53;;;3.73;;
32812;SDS011;19162;48.254;11.454;2023-04-03T05:22:20;3.30;;;3.05;;
32812;SDS011;19162;48.254;11.454;2023-04-03T05:25:20;3.72;;;3.40;;
32812;SDS011;19162;48.254;11.454;2023-04-03T05:28:21;5.93;;;3.65;;
32812;SDS011;19162;48.254;11.454;2023-04-03T05:31:21;3.93;;;3.63;;
32812;SDS011;19162;48.254;11.454;2023-04-03T05:34:21;3.73;;;3.43;;
32812;SDS011;19162;48.254;11.454;2023-04-03T05:37:21;3.57;;;3.27;;
32812;SDS011;19162;48.254;11.454;2023-04-03T05:40:22;4.43;;;3.33;;
32812;SDS011;19162;48.254;11.454;2023-04-03T05:43:22;4.03;;;3.47;;
32812;SDS011;19162;48.254;11.454;2023-04-03T05:46:22;3.70;;;3.40;;
32812;SDS011;19162;48.254;11.454;2023-04-03T05:49:22;3.55;;;3.25;;
32812;SDS011;19162;48.254;11.454;2023-04-03T05:52:25;3.65;;;3.35;;
32812;SDS011;19162;48.254;11.454;2023-04-03T05:55:27;3.88;;;3.58;;
32812;SDS011;19162;48.254;11.454;2023-04-03T05:58:27;4.23;;;3.53;;
32812;SDS011;19162;48.254;11.454;2023-04-03T06:01:27;4.38;;;3.92;;
32812;SDS011;19162;48.254;11.454;2023-04-03T06:04:27;4.00;;;3.60;;
32812;SDS011;19162;48.254;11.454;2023-04-03T06:07:28;3.92;;;3.53;;
32812;SDS011;19162;48.254;11.454;2023-04-03T06:10:28;4.00;;;3.60;;
32812;SDS011;19162;48.254;11.454;2023-04-03T06:13:28;4.22;;;3.83;;
32812;SDS011;19162;48.254;11.454;2023-04-03T06:16:29;4.95;;;3.92;;
32812;SDS011;19162;48.254;11.454;2023-04-03T06:19:29;6.32;;;3.75;;
32812;SDS011;19162;48.254;11.454;2023-04-03T06:22:30;4.45;;;4.05;;
32812;SDS011;19162;48.254;11.454;2023-04-03T06:25:30;3.95;;;3.55;;
32812;SDS011;19162;48.254;11.454;2023-04-03T06:28:31;4.45;;;4.13;;
32812;SDS011;19162;48.254;11.454;2023-04-03T06:31:31;4.40;;;3.73;;
32812;SDS011;19162;48.254;11.454;2023-04-03T06:34:32;4.33;;;3.83;;
32812;SDS011;19162;48.254;11.454;2023-04-03T06:37:32;5.57;;;4.55;;
32812;SDS011;19162;48.254;11.454;2023-04-03T06:40:32;5.03;;;4.55;;
32812;SDS011;19162;48.254;11.454;2023-04-03T06:43:33;3.93;;;3.53;;
32812;SDS011;19162;48.254;11.454;2023-04-03T06:46:33;4.15;;;3.75;;
32812;SDS011;19162;48.254;11.454;2023-04-03T06:49:33;4.03;;;3.63;;
32812;SDS011;19162;48.254;11.454;2023-04-03T06:52:34;4.90;;;3.70;;
32812;SDS011;19162;48.254;11.454;2023-04-03T06:55:34;4.93;;;4.45;;
32812;SDS011;19162;48.254;11.454;2023-04-03T06:58:35;3.78;;;3.40;;
32812;SDS011;19162;48.254;11.454;2023-04-03T07:01:36;3.92;;;3.63;;
32812;SDS011;19162;48.254;11.454;2023-04-03T07:04:36;5.40;;;4.40;;
32812;SDS011;19162;48.254;11.454;2023-04-03T07:07:36;4.70;;;4.10;;
32812;SDS011;19162;48.254;11.454;2023-04-03T07:10:37;4.32;;;3.95;;
32812;SDS011;19162;48.254;11.454;2023-04-03T07:13:38;5.30;;;3.88;;
32812;SDS011;19162;48.254;11.454;2023-04-03T07:16:38;6.28;;;4.05;;
32812;SDS011;19162;48.254;11.454;2023-04-03T07:19:39;5.18;;;4.68;;
32812;SDS011;19162;48.254;11.454;2023-04-03T07:22:39;4.73;;;3.90;;
32812;SDS011;19162;48.254;11.454;2023-04-03T07:25:46;3.90;;;3.60;;
32812;SDS011;19162;48.254;11.454;2023-04-03T07:28:46;4.55;;;4.15;;
32812;SDS011;19162;48.254;11.454;2023-04-03T07:31:48;4.60;;;3.47;;
32812;SDS011;19162;48.254;11.454;2023-04-03T07:34:49;4.40;;;3.85;;
32812;SDS011;19162;48.254;11.454;2023-04-03T07:37:49;4.00;;;3.70;;
32812;SDS011;19162;48.254;11.454;2023-04-03T07:40:50;4.70;;;4.30;;
32812;SDS011;19162;48.254;11.454;2023-04-03T07:43:52;3.75;;;3.38;;
32812;SDS011;19162;48.254;11.454;2023-04-03T07:46:52;4.75;;;4.35;;
32812;SDS011;19162;48.254;11.454;2023-04-03T07:49:53;4.87;;;4.40;;
32812;SDS011;19162;48.254;11.454;2023-04-03T07:52:53;4.17;;;3.23;;
32812;SDS011;19162;48.254;11.454;2023-04-03T07:55:56;4.45;;;4.05;;
32812;SDS011;19162;48.254;11.454;2023-04-03T07:58:57;4.55;;;4.15;;
32812;SDS011;19162;48.254;11.454;2023-04-03T08:01:57;4.68;;;3.83;;
32812;SDS011;19162;48.254;11.454;2023-04-03T08:04:58;4.05;;;3.63;;
32812;SDS011;19162;48.254;11.454;2023-04-03T08:07:58;3.80;;;3.45;;
32812;SDS011;19162;48.254;11.454;2023-04-03T08:10:59;5.80;;;4.10;;
32812;SDS011;19162;48.254;11.454;2023-04-03T08:14:00;3.72;;;3.42;;
32812;SDS011;19162;48.254;11.454;2023-04-03T08:17:00;3.92;;;3.63;;
32812;SDS011;19162;48.254;11.454;2023-04-03T08:20:01;3.67;;;3.37;;
32812;SDS011;19162;48.254;11.454;2023-04-03T08:23:01;4.78;;;4.15;;
32812;SDS011;19162;48.254;11.454;2023-04-03T08:26:05;3.88;;;3.58;;
32812;SDS011;19162;48.254;11.454;2023-04-03T08:29:06;3.78;;;3.35;;
32812;SDS011;19162;48.254;11.454;2023-04-03T08:32:07;5.53;;;3.80;;
32812;SDS011;19162;48.254;11.454;2023-04-03T08:35:07;4.10;;;3.45;;
32812;SDS011;19162;48.254;11.454;2023-04-03T08:38:08;3.67;;;3.28;;
32812;SDS011;19162;48.254;11.454;2023-04-03T08:50:30;4.18;;;3.75;;
32812;SDS011;19162;48.254;11.454;2023-04-03T08:53:35;4.03;;;3.63;;
32812;SDS011;19162;48.254;11.454;2023-04-03T08:56:36;4.85;;;3.25;;
32812;SDS011;19162;48.254;11.454;2023-04-03T08:59:37;3.97;;;3.55;;
32812;SDS011;19162;48.254;11.454;2023-04-03T09:02:55;4.32;;;3.13;;
32812;SDS011;19162;48.254;11.454;2023-04-03T09:09:24;3.22;;;3.03;;
32812;SDS011;19162;48.254;11.454;2023-04-03T09:12:34;4.68;;;3.40;;
32812;SDS011;19162;48.254;11.454;2023-04-03T09:15:37;5.18;;;3.58;;
32812;SDS011;19162;48.254;11.454;2023-04-03T09:18:39;3.58;;;3.28;;
32812;SDS011;19162;48.254;11.454;2023-04-03T09:21:42;4.03;;;3.45;;
32812;SDS011;19162;48.254;11.454;2023-04-03T09:24:43;4.35;;;3.95;;
32812;SDS011;19162;48.254;11.454;2023-04-03T09:27:45;3.92;;;2.85;;
32812;SDS011;19162;48.254;11.454;2023-04-03T09:30:46;6.67;;;6.10;;
32812;SDS011;19162;48.254;11.454;2023-04-03T09:33:47;4.23;;;3.83;;
32812;SDS011;19162;48.254;11.454;2023-04-03T09:36:53;3.55;;;3.25;;
32812;SDS011;19162;48.254;11.454;2023-04-03T09:39:53;3.22;;;2.92;;
32812;SDS011;19162;48.254;11.454;2023-04-03T09:42:59;4.10;;;3.67;;
32812;SDS011;19162;48.254;11.454;2023-04-03T09:46:16;3.50;;;2.95;;
32812;SDS011;19162;48.254;11.454;2023-04-03T09:49:17;3.72;;;3.33;;
32812;SDS011;19162;48.254;11.454;2023-04-03T09:52:18;3.50;;;3.20;;
32812;SDS011;19162;48.254;11.454;2023-04-03T09:55:20;3.85;;;3.20;;
32812;SDS011;19162;48.254;11.454;2023-04-03T10:01:35;2.97;;;2.72;;
32812;SDS011;19162;48.254;11.454;2023-04-03T10:04:39;4.22;;;3.78;;
32812;SDS011;19162;48.254;11.454;2023-04-03T10:07:40;5.90;;;5.15;;
32812;SDS011;19162;48.254;11.454;2023-04-03T10:10:41;5.28;;;3.55;;
32812;SDS011;19162;48.254;11.454;2023-04-03T10:13:51;4.47;;;3.45;;
32812;SDS011;19162;48.254;11.454;2023-04-03T10:16:54;3.22;;;2.97;;
32812;SDS011;19162;48.254;11.454;2023-04-03T10:35:37;3.78;;;2.85;;
32812;SDS011;19162;48.254;11.454;2023-04-03T10:38:42;5.13;;;2.67;;
32812;SDS011;19162;48.254;11.454;2023-04-03T10:41:47;3.70;;;2.17;;
32812;SDS011;19162;48.254;11.454;2023-04-03T10:48:08;4.43;;;2.60;;
32812;SDS011;19162;48.254;11.454;2023-04-03T10:51:13;2.50;;;2.08;;
32812;SDS011;19162;48.254;11.454;2023-04-03T10:57:19;3.38;;;1.85;;
32812;SDS011;19162;48.254;11.454;2023-04-03T11:00:35;2.42;;;2.20;;
32812;SDS011;19162;48.254;11.454;2023-04-03T11:03:58;1.80;;;1.70;;
32812;SDS011;19162;48.254;11.454;2023-04-03T11:07:02;2.63;;;2.10;;
32812;SDS011;19162;48.254;11.454;2023-04-03T11:10:05;2.83;;;2.30;;
32812;SDS011;19162;48.254;11.454;2023-04-03T11:13:20;3.60;;;2.40;;
32812;SDS011;19162;48.254;11.454;2023-04-03T11:16:27;3.13;;;2.10;;
32812;SDS011;19162;48.254;11.454;2023-04-03T11:22:42;1.90;;;1.70;;
32812;SDS011;19162;48.254;11.454;2023-04-03T11:25:42;2.42;;;2.13;;
32812;SDS011;19162;48.254;11.454;2023-04-03T11:28:43;3.45;;;2.20;;
32812;SDS011;19162;48.254;11.454;2023-04-03T11:34:54;3.65;;;2.30;;
32812;SDS011;19162;48.254;11.454;2023-04-03T11:37:58;4.10;;;2.45;;
32812;SDS011;19162;48.254;11.454;2023-04-03T11:41:00;2.85;;;2.05;;
32812;SDS011;19162;48.254;11.454;2023-04-03T11:47:04;1.90;;;1.60;;
32812;SDS011;19162;48.254;11.454;2023-04-03T11:50:05;4.65;;;1.92;;
32812;SDS011;19162;48.254;11.454;2023-04-03T11:59:36;3.80;;;2.42;;
32812;SDS011;19162;48.254;11.454;2023-04-03T12:02:37;2.75;;;2.38;;
32812;SDS011;19162;48.254;11.454;2023-04-03T12:05:37;2.90;;;2.10;;
32812;SDS011;19162;48.254;11.454;2023-04-03T12:11:41;2.38;;;2.17;;
32812;SDS011;19162;48.254;11.454;2023-04-03T12:14:41;3.60;;;2.20;;
32812;SDS011;19162;48.254;11.454;2023-04-03T12:17:43;3.63;;;2.22;;
32812;SDS011;19162;48.254;11.454;2023-04-03T12:20:53;2.93;;;2.03;;
32812;SDS011;19162;48.254;11.454;2023-04-03T12:27:15;2.58;;;1.98;;
32812;SDS011;19162;48.254;11.454;2023-04-03T12:30:21;2.92;;;1.83;;
32812;SDS011;19162;48.254;11.454;2023-04-03T12:33:24;1.90;;;1.75;;
32812;SDS011;19162;48.254;11.454;2023-04-03T12:36:30;2.72;;;1.80;;
32812;SDS011;19162;48.254;11.454;2023-04-03T12:39:36;1.88;;;1.73;;
32812;SDS011;19162;48.254;11.454;2023-04-03T12:49:50;2.15;;;1.48;;
32812;SDS011;19162;48.254;11.454;2023-04-03T12:55:35;1.55;;;1.45;;
32812;SDS011;19162;48.254;11.454;2023-04-03T12:58:35;3.47;;;1.55;;
32812;SDS011;19162;48.254;11.454;2023-04-03T13:01:35;3.28;;;1.70;;
32812;SDS011;19162;48.254;11.454;2023-04-03T13:04:37;1.80;;;1.50;;
32812;SDS011;19162;48.254;11.454;2023-04-03T13:07:38;1.92;;;1.40;;
32812;SDS011;19162;48.254;11.454;2023-04-03T13:10:47;2.13;;;1.90;;
32812;SDS011;19162;48.254;11.454;2023-04-03T13:17:00;3.35;;;2.00;;
32812;SDS011;19162;48.254;11.454;2023-04-03T13:20:10;2.25;;;1.48;;
32812;SDS011;19162;48.254;11.454;2023-04-03T13:23:10;4.63;;;1.80;;
32812;SDS011;19162;48.254;11.454;2023-04-03T13:26:14;4.13;;;1.92;;
32812;SDS011;19162;48.254;11.454;2023-04-03T13:29:24;1.90;;;1.70;;
32812;SDS011;19162;48.254;11.454;2023-04-03T13:32:26;1.55;;;1.45;;
32812;SDS011;19162;48.254;11.454;2023-04-03T13:35:28;1.38;;;1.27;;
32812;SDS011;19162;48.254;11.454;2023-04-03T13:38:31;2.75;;;1.75;;
32812;SDS011;19162;48.254;11.454;2023-04-03T13:41:42;2.28;;;2.08;;
32812;SDS011;19162;48.254;11.454;2023-04-03T13:44:43;2.70;;;2.33;;
32812;SDS011;19162;48.254;11.454;2023-04-03T13:47:44;2.70;;;2.15;;
32812;SDS011;19162;48.254;11.454;2023-04-03T13:54:10;2.80;;;1.88;;
32812;SDS011;19162;48.254;11.454;2023-04-03T13:57:14;1.90;;;1.60;;
32812;SDS011;19162;48.254;11.454;2023-04-03T14:00:49;2.75;;;2.28;;
32812;SDS011;19162;48.254;11.454;2023-04-03T14:03:43;2.05;;;1.83;;
32812;SDS011;19162;48.254;11.454;2023-04-03T14:06:44;3.08;;;1.83;;
32812;SDS011;19162;48.254;11.454;2023-04-03T14:09:45;1.73;;;1.55;;
32812;SDS011;19162;48.254;11.454;2023-04-03T14:12:46;2.58;;;1.95;;
32812;SDS011;19162;48.254;11.454;2023-04-03T14:15:50;2.60;;;1.98;;
32812;SDS011;19162;48.254;11.454;2023-04-03T14:18:53;2.63;;;1.90;;
32812;SDS011;19162;48.254;11.454;2023-04-03T14:22:16;3.42;;;1.55;;
32812;SDS011;19162;48.254;11.454;2023-04-03T14:25:17;1.52;;;1.40;;
32812;SDS011;19162;48.254;11.454;2023-04-03T14:28:18;1.60;;;1.50;;
32812;SDS011;19162;48.254;11.454;2023-04-03T14:31:28;1.85;;;1.40;;
32812;SDS011;19162;48.254;11.454;2023-04-03T14:34:29;3.05;;;1.45;;
32812;SDS011;19162;48.254;11.454;2023-04-03T14:37:29;1.93;;;1.43;;
32812;SDS011;19162;48.254;11.454;2023-04-03T14:40:31;2.85;;;1.67;;
32812;SDS011;19162;48.254;11.454;2023-04-03T14:43:31;1.92;;;1.42;;
32812;SDS011;19162;48.254;11.454;2023-04-03T14:46:33;2.03;;;1.40;;
32812;SDS011;19162;48.254;11.454;2023-04-03T14:52:35;2.75;;;1.30;;
32812;SDS011;19162;48.254;11.454;2023-04-03T14:55:38;1.80;;;1.30;;
32812;SDS011;19162;48.254;11.454;2023-04-03T15:01:38;2.22;;;1.77;;
32812;SDS011;19162;48.254;11.454;2023-04-03T15:04:39;1.60;;;1.20;;
32812;SDS011;19162;48.254;11.454;2023-04-03T15:07:43;2.40;;;1.63;;
32812;SDS011;19162;48.254;11.454;2023-04-03T15:10:44;1.77;;;1.20;;
32812;SDS011;19162;48.254;11.454;2023-04-03T15:13:44;1.77;;;1.40;;
32812;SDS011;19162;48.254;11.454;2023-04-03T15:16:46;2.80;;;1.67;;
32812;SDS011;19162;48.254;11.454;2023-04-03T15:19:46;2.03;;;1.60;;
32812;SDS011;19162;48.254;11.454;2023-04-03T15:22:47;1.77;;;1.63;;
32812;SDS011;19162;48.254;11.454;2023-04-03T15:25:47;2.13;;;1.60;;
32812;SDS011;19162;48.254;11.454;2023-04-03T15:28:48;1.70;;;1.40;;
32812;SDS011;19162;48.254;11.454;2023-04-03T15:31:51;2.45;;;1.65;;
32812;SDS011;19162;48.254;11.454;2023-04-03T15:34:53;2.17;;;1.88;;
32812;SDS011;19162;48.254;11.454;2023-04-03T15:37:54;3.40;;;1.25;;
32812;SDS011;19162;48.254;11.454;2023-04-03T15:40:55;2.53;;;1.70;;
32812;SDS011;19162;48.254;11.454;2023-04-03T15:43:55;1.30;;;1.20;;
32812;SDS011;19162;48.254;11.454;2023-04-03T15:46:55;2.43;;;1.50;;
32812;SDS011;19162;48.254;11.454;2023-04-03T15:49:56;2.20;;;1.42;;
32812;SDS011;19162;48.254;11.454;2023-04-03T15:52:56;1.70;;;1.60;;
32812;SDS011;19162;48.254;11.454;2023-04-03T15:55:57;3.03;;;2.00;;
32812;SDS011;19162;48.254;11.454;2023-04-03T15:58:58;2.53;;;1.65;;
32812;SDS011;19162;48.254;11.454;2023-04-03T16:01:58;1.77;;;1.17;;
32812;SDS011;19162;48.254;11.454;2023-04-03T16:04:59;2.85;;;1.85;;
32812;SDS011;19162;48.254;11.454;2023-04-03T16:07:59;1.23;;;1.13;;
32812;SDS011;19162;48.254;11.454;2023-04-03T16:11:00;2.00;;;1.40;;
32812;SDS011;19162;48.254;11.454;2023-04-03T16:14:00;1.50;;;1.40;;
32812;SDS011;19162;48.254;11.454;2023-04-03T16:17:00;2.03;;;1.73;;
32812;SDS011;19162;48.254;11.454;2023-04-03T16:20:00;2.40;;;1.57;;
32812;SDS011;19162;48.254;11.454;2023-04-03T16:23:01;2.75;;;1.83;;
32812;SDS011;19162;48.254;11.454;2023-04-03T16:26:01;1.88;;;1.50;;
32812;SDS011;19162;48.254;11.454;2023-04-03T16:29:01;2.55;;;1.77;;
32812;SDS011;19162;48.254;11.454;2023-04-03T16:32:02;2.40;;;1.93;;
32812;SDS011;19162;48.254;11.454;2023-04-03T16:35:02;1.60;;;1.50;;
32812;SDS011;19162;48.254;11.454;2023-04-03T16:38:03;1.75;;;1.65;;
32812;SDS011;19162;48.254;11.454;2023-04-03T16:41:03;3.05;;;2.70;;
32812;SDS011;19162;48.254;11.454;2023-04-03T16:44:04;3.22;;;1.95;;
32812;SDS011;19162;48.254;11.454;2023-04-03T16:47:07;1.75;;;1.60;;
32812;SDS011;19162;48.254;11.454;2023-04-03T16:50:07;3.08;;;1.65;;
32812;SDS011;19162;48.254;11.454;2023-04-03T16:53:08;2.85;;;1.42;;
32812;SDS011;19162;48.254;11.454;2023-04-03T16:56:09;2.55;;;1.73;;
32812;SDS011;19162;48.254;11.454;2023-04-03T16:59:09;2.40;;;1.65;;
32812;SDS011;19162;48.254;11.454;2023-04-03T17:02:09;3.57;;;2.50;;
32812;SDS011;19162;48.254;11.454;2023-04-03T17:05:10;1.97;;;1.57;;
32812;SDS011;19162;48.254;11.454;2023-04-03T17:08:10;2.35;;;1.60;;
32812;SDS011;19162;48.254;11.454;2023-04-03T17:11:10;2.97;;;2.00;;
32812;SDS011;19162;48.254;11.454;2023-04-03T17:14:10;4.88;;;2.13;;
32812;SDS011;19162;48.254;11.454;2023-04-03T17:17:11;3.75;;;1.60;;
32812;SDS011;19162;48.254;11.454;2023-04-03T17:20:14;4.10;;;1.98;;
32812;SDS011;19162;48.254;11.454;2023-04-03T17:23:14;2.90;;;1.85;;
32812;SDS011;19162;48.254;11.454;2023-04-03T17:26:15;2.10;;;1.90;;
32812;SDS011;19162;48.254;11.454;2023-04-03T17:29:33;2.20;;;2.00;;
32812;SDS011;19162;48.254;11.454;2023-04-03T17:32:36;3.67;;;2.20;;
32812;SDS011;19162;48.254;11.454;2023-04-03T17:35:40;2.47;;;1.90;;
32812;SDS011;19162;48.254;11.454;2023-04-03T17:38:50;1.73;;;1.63;;
32812;SDS011;19162;48.254;11.454;2023-04-03T17:41:53;4.35;;;2.10;;
32812;SDS011;19162;48.254;11.454;2023-04-03T17:45:36;2.47;;;2.22;;
32812;SDS011;19162;48.254;11.454;2023-04-03T17:48:26;2.65;;;2.30;;
32812;SDS011;19162;48.254;11.454;2023-04-03T17:51:37;3.70;;;2.05;;
32812;SDS011;19162;48.254;11.454;2023-04-03T17:54:43;3.65;;;2.08;;
32812;SDS011;19162;48.254;11.454;2023-04-03T17:57:43;2.50;;;2.30;;
32812;SDS011;19162;48.254;11.454;2023-04-03T18:00:44;4.03;;;2.33;;
32812;SDS011;19162;48.254;11.454;2023-04-03T18:03:44;1.97;;;1.70;;
32812;SDS011;19162;48.254;11.454;2023-04-03T18:06:46;3.67;;;2.45;;
32812;SDS011;19162;48.254;11.454;2023-04-03T18:09:47;4.32;;;2.33;;
32812;SDS011;19162;48.254;11.454;2023-04-03T18:12:48;2.38;;;2.10;;
32812;SDS011;19162;48.254;11.454;2023-04-03T18:23:36;3.00;;;1.92;;
32812;SDS011;19162;48.254;11.454;2023-04-03T18:26:47;3.00;;;1.90;;
32812;SDS011;19162;48.254;11.454;2023-04-03T18:29:52;3.45;;;2.28;;
32812;SDS011;19162;48.254;11.454;2023-04-03T18:32:56;2.95;;;2.25;;
32812;SDS011;19162;48.254;11.454;2023-04-03T18:36:14;2.30;;;2.10;;
32812;SDS011;19162;48.254;11.454;2023-04-03T18:39:15;2.42;;;2.17;;
32812;SDS011;19162;48.254;11.454;2023-04-03T18:42:17;2.83;;;2.00;;
32812;SDS011;19162;48.254;11.454;2023-04-03T18:48:18;2.45;;;1.63;;
32812;SDS011;19162;48.254;11.454;2023-04-03T18:51:20;1.90;;;1.70;;
32812;SDS011;19162;48.254;11.454;2023-04-03T18:54:24;3.33;;;2.03;;
32812;SDS011;19162;48.254;11.454;2023-04-03T18:57:27;3.25;;;2.00;;
32812;SDS011;19162;48.254;11.454;2023-04-03T19:00:27;2.42;;;1.80;;
32812;SDS011;19162;48.254;11.454;2023-04-03T19:06:31;2.58;;;1.95;;
32812;SDS011;19162;48.254;11.454;2023-04-03T19:09:32;2.53;;;1.50;;
32812;SDS011;19162;48.254;11.454;2023-04-03T19:12:32;2.17;;;1.63;;
32812;SDS011;19162;48.254;11.454;2023-04-03T19:15:37;6.20;;;2.25;;
32812;SDS011;19162;48.254;11.454;2023-04-03T19:18:38;2.50;;;1.38;;
32812;SDS011;19162;48.254;11.454;2023-04-03T19:21:38;2.20;;;2.00;;
32812;SDS011;19162;48.254;11.454;2023-04-03T19:24:40;2.33;;;2.13;;
32812;SDS011;19162;48.254;11.454;2023-04-03T19:27:44;2.97;;;2.05;;
32812;SDS011;19162;48.254;11.454;2023-04-03T19:30:44;2.78;;;1.95;;
32812;SDS011;19162;48.254;11.454;2023-04-03T19:33:47;2.47;;;2.28;;
32812;SDS011;19162;48.254;11.454;2023-04-03T19:36:50;5.47;;;2.60;;
32812;SDS011;19162;48.254;11.454;2023-04-03T19:39:51;3.63;;;1.95;;
32812;SDS011;19162;48.254;11.454;2023-04-03T19:42:51;2.30;;;1.60;;
32812;SDS011;19162;48.254;11.454;2023-04-03T19:45:52;2.33;;;2.13;;
32812;SDS011;19162;48.254;11.454;2023-04-03T19:48:52;1.92;;;1.83;;
32812;SDS011;19162;48.254;11.454;2023-04-03T19:51:52;3.67;;;2.00;;
32812;SDS011;19162;48.254;11.454;2023-04-03T19:54:53;4.90;;;2.20;;
32812;SDS011;19162;48.254;11.454;2023-04-03T19:57:53;3.70;;;2.73;;
32812;SDS011;19162;48.254;11.454;2023-04-03T20:00:53;2.92;;;2.55;;
32812;SDS011;19162;48.254;11.454;2023-04-03T20:03:53;4.97;;;2.40;;
32812;SDS011;19162;48.254;11.454;2023-04-03T20:06:54;3.15;;;2.00;;
32812;SDS011;19162;48.254;11.454;2023-04-03T20:09:55;2.22;;;2.03;;
32812;SDS011;19162;48.254;11.454;2023-04-03T20:12:55;3.25;;;2.22;;
32812;SDS011;19162;48.254;11.454;2023-04-03T20:15:56;2.83;;;2.10;;
32812;SDS011;19162;48.254;11.454;2023-04-03T20:18:57;3.58;;;2.05;;
32812;SDS011;19162;48.254;11.454;2023-04-03T20:21:59;2.83;;;2.22;;
32812;SDS011;19162;48.254;11.454;2023-04-03T20:25:00;2.47;;;1.88;;
32812;SDS011;19162;48.254;11.454;2023-04-03T20:28:01;4.32;;;2.70;;
32812;SDS011;19162;48.254;11.454;2023-04-03T20:31:01;2.60;;;1.97;;
32812;SDS011;19162;48.254;11.454;2023-04-03T20:34:02;5.00;;;1.98;;
32812;SDS011;19162;48.254;11.454;2023-04-03T20:37:02;4.10;;;2.55;;
32812;SDS011;19162;48.254;11.454;2023-04-03T20:40:03;2.13;;;1.92;;
32812;SDS011;19162;48.254;11.454;2023-04-03T20:43:04;3.38;;;2.38;;